createdAt,value
2023-01-26T00:00:07.053Z,83.85
2023-01-26T00:01:12.755Z,91.35
2023-01-26T00:02:14.816Z,90.00
2023-01-26T00:03:19.818Z,75.90
2023-01-26T00:04:22.085Z,81.45
2023-01-26T00:05:26.857Z,70.50
2023-01-26T00:06:28.882Z,75.72
2023-01-26T00:07:33.575Z,65.40
2023-01-26T00:08:37.838Z,81.90
2023-01-26T00:09:42.642Z,72.05
2023-01-26T00:10:50.607Z,75.13
2023-01-26T00:11:55.251Z,61.00
2023-01-26T00:12:57.551Z,77.20
2023-01-26T00:14:03.902Z,69.70
2023-01-26T00:15:07.394Z,72.63
2023-01-26T00:16:14.622Z,61.92
2023-01-26T00:17:26.153Z,70.47
2023-01-26T00:19:32.839Z,61.28
2023-01-26T00:20:37.374Z,58.10
2023-01-26T00:21:39.469Z,60.28
2023-01-26T00:22:44.287Z,60.15
2023-01-26T00:23:47.635Z,65.82
2023-01-26T00:24:52.286Z,64.85
2023-01-26T00:25:57.220Z,54.92
2023-01-26T00:27:01.883Z,55.28
2023-01-26T00:28:03.954Z,53.03
2023-01-26T00:29:08.540Z,55.30
2023-01-26T00:30:11.278Z,53.85
2023-01-26T00:31:18.362Z,59.72
2023-01-26T00:32:20.684Z,57.28
2023-01-26T00:33:25.438Z,50.38
2023-01-26T00:34:27.704Z,49.47
2023-01-26T00:35:32.462Z,48.10
2023-01-26T00:36:36.370Z,57.33
2023-01-26T00:37:41.161Z,48.03
2023-01-26T00:38:43.224Z,52.60
2023-01-26T00:39:48.245Z,48.47
2023-01-26T00:40:50.683Z,54.97
2023-01-26T00:42:10.095Z,51.80
2023-01-26T00:43:12.180Z,50.60
2023-01-26T00:44:16.771Z,53.95
2023-01-26T00:45:18.842Z,51.50
2023-01-26T00:46:23.541Z,54.70
2023-01-26T00:47:28.143Z,49.28
2023-01-26T00:48:30.108Z,48.53
2023-01-26T00:49:34.742Z,56.45
2023-01-26T00:50:36.960Z,61.30
2023-01-26T00:51:41.762Z,65.13
2023-01-26T00:52:43.801Z,59.50
2023-01-26T00:53:48.490Z,50.15
2023-01-26T00:54:50.526Z,53.75
2023-01-26T00:55:58.170Z,43.30
2023-01-26T00:57:02.938Z,49.85
2023-01-26T00:58:09.547Z,50.10
2023-01-26T00:59:12.283Z,41.45
2023-01-26T01:00:17.801Z,47.88
2023-01-26T01:01:19.857Z,49.67
2023-01-26T01:02:24.700Z,38.10
2023-01-26T01:03:26.811Z,48.05
2023-01-26T01:04:32.747Z,45.67
2023-01-26T01:05:35.300Z,40.90
2023-01-26T01:06:40.092Z,44.03
2023-01-26T01:07:42.165Z,44.97
2023-01-26T01:08:47.043Z,48.17
2023-01-26T01:09:49.009Z,43.50
2023-01-26T01:10:53.542Z,42.90
2023-01-26T01:11:55.657Z,40.28
2023-01-26T01:13:02.948Z,45.33
2023-01-26T01:14:05.095Z,43.25
2023-01-26T01:15:11.443Z,46.80
2023-01-26T01:16:15.705Z,47.22
2023-01-26T01:17:20.425Z,42.67
2023-01-26T01:18:22.415Z,49.10
2023-01-26T01:19:27.675Z,39.90
2023-01-26T01:20:30.039Z,40.13
2023-01-26T01:21:36.541Z,40.28
2023-01-26T01:22:38.718Z,39.58
2023-01-26T01:23:44.054Z,41.08
2023-01-26T01:24:46.158Z,43.08
2023-01-26T01:25:59.017Z,39.97
2023-01-26T01:27:01.022Z,39.45
2023-01-26T01:28:08.531Z,37.83
2023-01-26T01:29:13.292Z,35.60
2023-01-26T01:30:18.179Z,36.53
2023-01-26T01:31:20.528Z,42.38
2023-01-26T01:32:25.450Z,37.17
2023-01-26T01:33:27.664Z,32.15
2023-01-26T01:34:32.950Z,31.95
2023-01-26T01:35:36.042Z,35.40
2023-01-26T01:36:40.838Z,32.30
2023-01-26T01:37:42.827Z,36.95
2023-01-26T01:38:50.408Z,34.25
2023-01-26T01:39:52.369Z,30.42
2023-01-26T01:40:58.063Z,32.78
2023-01-26T01:42:02.820Z,32.90
2023-01-26T01:43:11.943Z,35.25
2023-01-26T01:44:21.557Z,40.05
2023-01-26T01:45:39.337Z,34.80
2023-01-26T01:46:50.207Z,32.47
2023-01-26T01:47:53.447Z,30.58
2023-01-26T01:49:05.112Z,35.85
2023-01-26T01:51:24.351Z,30.88
2023-01-26T01:52:30.023Z,29.40
2023-01-26T01:53:38.924Z,33.80
2023-01-26T01:54:44.959Z,33.58
2023-01-26T01:58:15.192Z,35.95
2023-01-26T01:59:21.520Z,42.83
2023-01-26T02:00:27.587Z,37.47
2023-01-26T02:01:30.161Z,40.47
2023-01-26T02:02:35.098Z,37.00
2023-01-26T02:03:38.118Z,34.38
2023-01-26T02:04:43.311Z,33.03
2023-01-26T02:05:53.449Z,38.05
2023-01-26T02:07:02.434Z,36.58
2023-01-26T02:08:05.711Z,37.35
2023-01-26T02:09:31.883Z,31.98
2023-01-26T02:10:33.964Z,45.38
2023-01-26T02:11:44.994Z,38.28
2023-01-26T02:12:49.069Z,37.65
2023-01-26T02:13:57.638Z,36.03
2023-01-26T02:15:01.559Z,36.45
2023-01-26T02:16:06.893Z,38.13
2023-01-26T02:17:09.726Z,39.40
2023-01-26T02:18:16.551Z,38.20
2023-01-26T02:19:27.645Z,39.45
2023-01-26T02:20:40.582Z,31.08
2023-01-26T02:21:45.357Z,28.70
2023-01-26T02:22:57.409Z,30.35
2023-01-26T02:24:10.680Z,38.70
2023-01-26T02:25:27.282Z,36.05
2023-01-26T02:26:34.266Z,32.10
2023-01-26T02:27:40.235Z,28.83
2023-01-26T02:28:44.384Z,27.70
2023-01-26T02:29:49.400Z,33.72
2023-01-26T02:30:54.203Z,29.33
2023-01-26T02:31:59.642Z,34.22
2023-01-26T02:33:01.895Z,31.92
2023-01-26T02:34:06.755Z,27.20
2023-01-26T02:35:09.723Z,33.67
2023-01-26T02:36:21.399Z,28.67
2023-01-26T02:37:23.779Z,30.63
2023-01-26T02:38:33.274Z,29.65
2023-01-26T02:39:47.556Z,30.33
2023-01-26T02:40:54.381Z,32.80
2023-01-26T02:42:14.311Z,35.88
2023-01-26T02:43:19.253Z,25.80
2023-01-26T02:44:27.039Z,29.27
2023-01-26T02:45:34.178Z,29.85
2023-01-26T02:46:36.388Z,40.22
2023-01-26T02:47:41.368Z,33.72
2023-01-26T02:48:58.390Z,34.97
2023-01-26T02:50:00.764Z,36.05
2023-01-26T02:51:02.971Z,43.05
2023-01-26T02:52:07.903Z,43.13
2023-01-26T02:53:12.624Z,61.10
2023-01-26T02:54:34.677Z,56.67
2023-01-26T02:55:36.689Z,43.38
2023-01-26T02:56:43.022Z,59.83
2023-01-26T02:57:47.807Z,57.40
2023-01-26T02:58:53.129Z,50.60
2023-01-26T02:59:55.358Z,54.67
2023-01-26T03:01:00.169Z,51.33
2023-01-26T03:02:02.590Z,53.58
2023-01-26T03:03:15.194Z,55.22
2023-01-26T03:04:17.241Z,52.30
2023-01-26T03:05:22.192Z,49.10
2023-01-26T03:06:24.313Z,45.92
2023-01-26T03:07:29.364Z,50.78
2023-01-26T03:08:31.464Z,54.08
2023-01-26T03:09:36.157Z,57.55
2023-01-26T03:10:38.405Z,50.25
2023-01-26T03:11:44.871Z,56.15
2023-01-26T03:12:49.577Z,56.92
2023-01-26T03:13:54.190Z,57.15
2023-01-26T03:15:11.408Z,58.50
2023-01-26T03:16:18.486Z,67.13
2023-01-26T03:17:20.505Z,71.38
2023-01-26T03:18:38.956Z,65.57
2023-01-26T03:19:55.960Z,66.60
2023-01-26T03:21:29.779Z,67.68
2023-01-26T03:22:46.829Z,62.25
2023-01-26T03:24:04.258Z,70.07
2023-01-26T03:25:21.858Z,62.85
2023-01-26T03:26:39.386Z,81.78
2023-01-26T03:27:46.542Z,70.82
2023-01-26T03:28:51.388Z,84.68
2023-01-26T03:29:56.443Z,75.43
2023-01-26T03:31:01.462Z,76.90
2023-01-26T03:32:03.719Z,69.38
2023-01-26T03:33:08.396Z,70.68
2023-01-26T03:34:10.660Z,75.72
2023-01-26T03:35:15.774Z,81.97
2023-01-26T03:36:17.864Z,81.47
2023-01-26T03:37:23.039Z,70.63
2023-01-26T03:38:25.112Z,69.68
2023-01-26T03:39:42.403Z,82.03
2023-01-26T03:40:59.424Z,73.60
2023-01-26T03:42:17.080Z,74.45
2023-01-26T03:43:34.195Z,64.32
2023-01-26T03:44:53.991Z,65.00
2023-01-26T03:46:11.123Z,63.80
2023-01-26T03:47:28.279Z,62.35
2023-01-26T03:48:45.482Z,69.65
2023-01-26T03:50:02.521Z,59.95
2023-01-26T03:51:20.326Z,56.75
2023-01-26T03:52:37.488Z,55.83
2023-01-26T03:53:54.988Z,56.17
2023-01-26T03:55:12.107Z,74.03
2023-01-26T03:56:23.053Z,66.68
2023-01-26T03:57:25.034Z,60.72
2023-01-26T03:58:30.447Z,66.72
2023-01-26T03:59:38.454Z,61.55
2023-01-26T04:00:45.774Z,71.15
2023-01-26T04:02:02.882Z,57.28
2023-01-26T04:03:19.972Z,55.78
2023-01-26T04:04:37.191Z,57.42
2023-01-26T04:05:54.267Z,57.97
2023-01-26T04:07:11.549Z,60.90
2023-01-26T04:08:27.247Z,54.75
2023-01-26T04:09:29.674Z,58.80
2023-01-26T04:10:34.384Z,55.25
2023-01-26T04:11:36.459Z,57.95
2023-01-26T04:12:41.636Z,64.68
2023-01-26T04:13:58.761Z,63.10
2023-01-26T04:15:15.850Z,67.97
2023-01-26T04:16:35.696Z,68.07
2023-01-26T04:17:52.845Z,61.55
2023-01-26T04:19:10.133Z,54.67
2023-01-26T04:20:27.656Z,53.83
2023-01-26T04:21:34.010Z,55.08
2023-01-26T04:22:40.367Z,59.97
2023-01-26T04:23:45.112Z,56.30
2023-01-26T04:24:47.110Z,52.30
2023-01-26T04:25:52.289Z,55.60
2023-01-26T04:26:54.286Z,57.38
2023-01-26T04:27:58.874Z,50.88
2023-01-26T04:29:02.057Z,54.08
2023-01-26T04:30:07.731Z,49.13
2023-01-26T04:31:09.752Z,74.35
2023-01-26T04:32:17.303Z,80.75
2023-01-26T04:33:19.366Z,60.78
2023-01-26T04:34:24.030Z,59.15
2023-01-26T04:35:26.181Z,57.22
2023-01-26T04:36:31.633Z,53.67
2023-01-26T04:37:36.888Z,65.13
2023-01-26T04:38:38.884Z,49.88
2023-01-26T04:39:43.712Z,46.55
2023-01-26T04:40:45.705Z,42.78
2023-01-26T04:41:50.372Z,39.13
2023-01-26T04:42:52.359Z,39.13
2023-01-26T04:43:56.929Z,37.60
2023-01-26T04:44:58.880Z,40.63
2023-01-26T04:46:05.732Z,38.65
2023-01-26T04:47:07.897Z,48.58
2023-01-26T04:48:14.973Z,41.40
2023-01-26T04:49:16.946Z,48.20
2023-01-26T04:50:21.703Z,47.95
2023-01-26T04:51:23.722Z,46.80
2023-01-26T04:52:28.427Z,53.00
2023-01-26T04:53:31.895Z,53.38
2023-01-26T04:54:36.652Z,49.13
2023-01-26T04:55:38.778Z,56.03
2023-01-26T04:56:43.519Z,54.53
2023-01-26T04:57:45.560Z,53.13
2023-01-26T04:58:50.194Z,49.83
2023-01-26T04:59:52.185Z,44.92
2023-01-26T05:00:57.817Z,50.60
2023-01-26T05:02:00.175Z,42.67
2023-01-26T05:03:04.976Z,38.17
2023-01-26T05:04:12.927Z,40.03
2023-01-26T05:05:17.726Z,33.75
2023-01-26T05:06:19.844Z,33.17
2023-01-26T05:07:24.755Z,33.08
2023-01-26T05:08:26.837Z,29.20
2023-01-26T05:09:31.592Z,26.55
2023-01-26T05:10:33.813Z,34.15
2023-01-26T05:11:38.620Z,37.10
2023-01-26T05:12:42.878Z,38.20
2023-01-26T05:13:47.616Z,38.25
2023-01-26T05:14:49.583Z,45.33
2023-01-26T05:15:54.348Z,38.30
2023-01-26T05:16:56.472Z,44.38
2023-01-26T05:18:01.573Z,50.30
2023-01-26T05:19:03.743Z,48.30
2023-01-26T05:20:13.361Z,44.75
2023-01-26T05:21:15.552Z,52.35
2023-01-26T05:22:20.250Z,57.05
2023-01-26T05:23:22.619Z,50.35
2023-01-26T05:24:27.366Z,56.05
2023-01-26T05:25:29.511Z,62.75
2023-01-26T05:26:34.236Z,50.92
2023-01-26T05:27:36.835Z,53.33
2023-01-26T05:28:41.531Z,47.45
2023-01-26T05:29:43.551Z,53.95
2023-01-26T05:30:48.284Z,54.83
2023-01-26T05:31:50.508Z,61.78
2023-01-26T05:32:55.134Z,58.58
2023-01-26T05:33:57.118Z,52.30
2023-01-26T05:35:02.084Z,51.50
2023-01-26T05:36:08.636Z,57.42
2023-01-26T05:37:14.957Z,60.78
2023-01-26T05:38:20.689Z,54.75
2023-01-26T05:39:22.687Z,58.38
2023-01-26T05:40:27.710Z,51.63
2023-01-26T05:41:29.906Z,56.33
2023-01-26T05:42:34.595Z,54.15
2023-01-26T05:43:36.718Z,53.47
2023-01-26T05:44:41.697Z,54.97
2023-01-26T05:45:44.232Z,49.17
2023-01-26T05:46:48.858Z,48.53
2023-01-26T05:47:51.043Z,47.22
2023-01-26T05:48:56.132Z,50.55
2023-01-26T05:49:58.152Z,49.60
2023-01-26T05:51:04.050Z,54.00
2023-01-26T05:52:12.406Z,47.45
2023-01-26T05:53:17.031Z,49.42
2023-01-26T05:54:19.155Z,53.05
2023-01-26T05:55:24.103Z,52.53
2023-01-26T05:56:26.083Z,43.45
2023-01-26T05:57:30.769Z,45.58
2023-01-26T05:58:32.926Z,46.15
2023-01-26T05:59:37.940Z,46.38
2023-01-26T06:00:39.979Z,49.28
2023-01-26T06:01:45.293Z,43.53
2023-01-26T06:02:48.646Z,40.25
2023-01-26T06:03:53.945Z,43.13
2023-01-26T06:04:55.970Z,47.33
2023-01-26T06:06:00.616Z,42.15
2023-01-26T06:07:02.925Z,43.33
2023-01-26T06:08:10.577Z,40.80
2023-01-26T06:09:12.812Z,42.05
2023-01-26T06:10:17.962Z,39.38
2023-01-26T06:11:20.169Z,36.67
2023-01-26T06:12:25.672Z,42.10
2023-01-26T06:13:27.812Z,37.03
2023-01-26T06:14:33.231Z,38.15
2023-01-26T06:15:38.429Z,38.75
2023-01-26T06:16:41.028Z,37.42
2023-01-26T06:17:45.828Z,38.42
2023-01-26T06:18:48.636Z,35.08
2023-01-26T06:19:54.505Z,32.40
2023-01-26T06:21:01.973Z,42.15
2023-01-26T06:22:04.497Z,43.42
2023-01-26T06:23:12.704Z,28.90
2023-01-26T06:24:14.896Z,38.03
2023-01-26T06:25:20.897Z,40.08
2023-01-26T06:26:24.648Z,35.83
2023-01-26T06:27:30.045Z,44.85
2023-01-26T06:28:32.200Z,34.45
2023-01-26T06:29:37.047Z,37.67
2023-01-26T06:30:42.099Z,29.17
2023-01-26T06:31:44.440Z,35.10
2023-01-26T06:32:50.854Z,42.22
2023-01-26T06:33:55.466Z,40.00
2023-01-26T06:34:57.540Z,24.42
2023-01-26T06:36:04.924Z,27.75
2023-01-26T06:37:07.968Z,36.58
2023-01-26T06:38:15.450Z,28.42
2023-01-26T06:39:17.795Z,23.92
2023-01-26T06:40:23.003Z,28.33
2023-01-26T06:41:25.329Z,35.90
2023-01-26T06:42:30.237Z,27.63
2023-01-26T06:43:32.730Z,25.55
2023-01-26T06:44:37.426Z,27.48
2023-01-26T06:45:39.414Z,30.00
2023-01-26T06:46:44.037Z,35.17
2023-01-26T06:47:46.499Z,34.70
2023-01-26T06:48:51.107Z,30.63
2023-01-26T06:49:53.262Z,31.40
2023-01-26T06:51:02.137Z,37.13
2023-01-26T06:52:05.484Z,34.08
2023-01-26T06:53:28.993Z,37.72
2023-01-26T06:54:33.538Z,34.75
2023-01-26T06:55:38.563Z,34.00
2023-01-26T06:56:43.391Z,35.63
2023-01-26T06:57:45.345Z,36.15
2023-01-26T06:58:49.901Z,27.27
2023-01-26T06:59:54.564Z,27.77
2023-01-26T07:00:57.731Z,26.42
2023-01-26T07:02:02.465Z,25.27
2023-01-26T07:03:04.532Z,26.30
2023-01-26T07:04:09.459Z,27.95
2023-01-26T07:05:14.108Z,26.42
2023-01-26T07:06:16.147Z,26.40
2023-01-26T07:07:20.981Z,27.70
2023-01-26T07:08:25.675Z,24.58
2023-01-26T07:09:30.829Z,23.15
2023-01-26T07:10:35.817Z,20.40
2023-01-26T07:11:41.373Z,24.15
2023-01-26T07:12:45.924Z,21.67
2023-01-26T07:13:50.714Z,22.50
2023-01-26T07:14:55.752Z,17.77
2023-01-26T07:16:01.494Z,21.45
2023-01-26T07:17:06.695Z,21.13
2023-01-26T07:18:09.146Z,19.92
2023-01-26T07:19:13.899Z,19.05
2023-01-26T07:20:16.567Z,18.75
2023-01-26T07:21:23.158Z,22.92
2023-01-26T07:22:27.829Z,23.52
2023-01-26T07:23:34.657Z,21.95
2023-01-26T07:24:39.650Z,19.33
2023-01-26T07:25:43.733Z,26.25
2023-01-26T07:26:48.551Z,24.33
2023-01-26T07:27:58.615Z,24.90
2023-01-26T07:29:03.436Z,29.90
2023-01-26T07:30:07.485Z,27.80
2023-01-26T07:31:14.188Z,25.27
2023-01-26T07:32:16.325Z,22.77
2023-01-26T07:33:21.582Z,24.80
2023-01-26T07:34:26.543Z,25.63
2023-01-26T07:35:29.896Z,25.00
2023-01-26T07:36:34.962Z,29.63
2023-01-26T07:37:37.009Z,25.25
2023-01-26T07:38:45.374Z,24.55
2023-01-26T07:39:49.246Z,24.20
2023-01-26T07:40:54.472Z,26.27
2023-01-26T07:41:56.630Z,22.55
2023-01-26T07:43:02.003Z,22.50
2023-01-26T07:44:08.568Z,21.88
2023-01-26T07:45:11.419Z,23.08
2023-01-26T07:46:16.187Z,23.30
2023-01-26T07:47:20.140Z,22.83
2023-01-26T07:48:29.983Z,24.77
2023-01-26T07:49:34.948Z,26.33
2023-01-26T07:50:40.013Z,28.73
2023-01-26T07:51:44.911Z,25.95
2023-01-26T07:52:47.094Z,25.67
2023-01-26T07:53:54.533Z,28.48
2023-01-26T07:54:56.739Z,27.25
2023-01-26T07:56:09.691Z,27.58
2023-01-26T07:57:15.212Z,28.10
2023-01-26T07:58:18.781Z,29.13
2023-01-26T07:59:24.112Z,29.38
2023-01-26T08:00:26.299Z,30.92
2023-01-26T08:01:31.148Z,26.27
2023-01-26T08:02:33.509Z,27.73
2023-01-26T08:03:38.887Z,25.63
2023-01-26T08:04:43.940Z,30.90
2023-01-26T08:05:47.408Z,23.30
2023-01-26T08:06:54.054Z,25.45
2023-01-26T08:07:58.612Z,22.77
2023-01-26T08:09:06.495Z,23.70
2023-01-26T08:10:11.108Z,28.75
2023-01-26T08:11:16.068Z,21.63
2023-01-26T08:12:18.404Z,21.67
2023-01-26T08:13:34.404Z,26.65
2023-01-26T08:14:46.834Z,24.33
2023-01-26T08:15:49.307Z,20.15
2023-01-26T08:16:54.321Z,22.02
2023-01-26T08:17:59.319Z,25.55
2023-01-26T08:19:04.180Z,20.33
2023-01-26T08:20:07.394Z,20.63
2023-01-26T08:21:12.828Z,19.30
2023-01-26T08:22:14.850Z,21.63
2023-01-26T08:23:19.605Z,25.75
2023-01-26T08:24:28.208Z,21.27
2023-01-26T08:25:30.238Z,29.85
2023-01-26T08:26:36.026Z,23.67
2023-01-26T08:27:38.085Z,21.92
2023-01-26T08:28:43.630Z,19.38
2023-01-26T08:29:45.930Z,20.48
2023-01-26T08:30:50.612Z,24.38
2023-01-26T08:31:53.707Z,18.35
2023-01-26T08:32:58.613Z,22.20
2023-01-26T08:34:03.425Z,19.35
2023-01-26T08:35:07.705Z,19.23
2023-01-26T08:36:16.007Z,27.85
2023-01-26T08:37:21.560Z,25.95
2023-01-26T08:38:26.495Z,26.23
2023-01-26T08:39:33.826Z,25.05
2023-01-26T08:40:35.852Z,24.85
2023-01-26T08:41:40.488Z,24.77
2023-01-26T08:42:45.211Z,18.40
2023-01-26T08:43:50.352Z,19.95
2023-01-26T08:44:55.218Z,21.10
2023-01-26T08:46:00.480Z,19.02
2023-01-26T08:47:05.794Z,18.17
2023-01-26T08:48:10.429Z,19.27
2023-01-26T08:49:15.454Z,17.50
2023-01-26T08:50:17.949Z,17.65
2023-01-26T08:51:22.604Z,17.40
2023-01-26T08:52:27.400Z,20.20
2023-01-26T08:53:34.013Z,19.55
2023-01-26T08:54:41.528Z,24.48
2023-01-26T08:55:46.133Z,26.25
2023-01-26T08:56:48.102Z,19.73
2023-01-26T08:57:55.756Z,20.17
2023-01-26T08:58:57.854Z,19.80
2023-01-26T09:00:02.583Z,18.15
2023-01-26T09:01:08.558Z,21.27
2023-01-26T09:02:13.655Z,22.92
2023-01-26T09:03:18.371Z,22.42
2023-01-26T09:04:23.011Z,20.50
2023-01-26T09:05:25.111Z,22.67
2023-01-26T09:06:30.723Z,19.38
2023-01-26T09:07:32.910Z,24.83
2023-01-26T09:08:38.064Z,21.48
2023-01-26T09:09:46.089Z,20.52
2023-01-26T09:10:50.877Z,23.77
2023-01-26T09:11:55.589Z,35.05
2023-01-26T09:13:01.224Z,20.63
2023-01-26T09:14:06.006Z,15.55
2023-01-26T09:15:09.369Z,19.15
2023-01-26T09:16:19.769Z,17.08
2023-01-26T09:17:24.433Z,17.63
2023-01-26T09:18:29.412Z,15.90
2023-01-26T09:19:34.169Z,16.98
2023-01-26T09:20:40.432Z,15.90
2023-01-26T09:21:45.017Z,20.73
2023-01-26T09:22:50.774Z,34.47
2023-01-26T09:23:55.620Z,45.00
2023-01-26T09:25:03.043Z,24.15
2023-01-26T09:26:05.314Z,26.40
2023-01-26T09:27:10.061Z,15.82
2023-01-26T09:28:13.326Z,18.75
2023-01-26T09:29:18.853Z,21.80
2023-01-26T09:30:21.185Z,21.95
2023-01-26T09:31:25.981Z,19.05
2023-01-26T09:32:28.215Z,17.35
2023-01-26T09:33:32.916Z,16.88
2023-01-26T09:34:37.793Z,15.23
2023-01-26T09:35:39.803Z,17.15
2023-01-26T09:36:44.659Z,18.02
2023-01-26T09:37:49.319Z,16.70
2023-01-26T09:38:54.626Z,16.27
2023-01-26T09:40:02.112Z,18.42
2023-01-26T09:41:07.969Z,15.13
2023-01-26T09:42:28.465Z,18.27
2023-01-26T09:43:41.750Z,20.67
2023-01-26T09:44:52.554Z,19.27
2023-01-26T09:46:06.596Z,20.00
2023-01-26T09:47:20.890Z,30.98
2023-01-26T09:48:35.702Z,23.55
2023-01-26T09:49:49.823Z,19.55
2023-01-26T09:51:00.577Z,19.85
2023-01-26T09:52:09.357Z,19.52
2023-01-26T09:53:21.221Z,20.20
2023-01-26T09:54:34.109Z,18.50
2023-01-26T09:55:44.522Z,18.55
2023-01-26T09:56:49.699Z,17.30
2023-01-26T09:58:00.106Z,17.00
2023-01-26T09:59:14.517Z,15.00
2023-01-26T10:00:25.689Z,15.55
2023-01-26T10:01:39.173Z,18.60
2023-01-26T10:02:56.436Z,14.80
2023-01-26T10:04:07.188Z,16.67
2023-01-26T10:05:19.776Z,14.85
2023-01-26T10:06:29.156Z,17.38
2023-01-26T10:07:33.960Z,16.15
2023-01-26T10:08:36.185Z,16.25
2023-01-26T10:09:45.206Z,17.52
2023-01-26T10:10:57.539Z,16.80
2023-01-26T10:13:06.217Z,17.27
2023-01-26T10:14:17.487Z,13.85
2023-01-26T10:15:31.457Z,16.15
2023-01-26T10:16:37.164Z,14.75
2023-01-26T10:17:42.003Z,14.23
2023-01-26T10:18:56.041Z,12.75
2023-01-26T10:20:07.788Z,12.98
2023-01-26T10:21:15.775Z,15.50
2023-01-26T10:22:25.444Z,13.68
2023-01-26T10:23:32.110Z,13.95
2023-01-26T10:24:37.059Z,14.93
2023-01-26T10:25:41.435Z,14.73
2023-01-26T10:26:49.387Z,16.30
2023-01-26T10:27:54.165Z,13.90
2023-01-26T10:28:58.924Z,12.65
2023-01-26T10:30:03.534Z,13.15
2023-01-26T10:31:12.812Z,13.02
2023-01-26T10:32:20.031Z,14.73
2023-01-26T10:33:27.635Z,14.05
2023-01-26T10:34:33.121Z,14.95
2023-01-26T10:35:35.136Z,14.90
2023-01-26T10:36:39.795Z,17.65
2023-01-26T10:37:44.420Z,15.73
2023-01-26T10:38:50.261Z,19.95
2023-01-26T10:40:04.031Z,14.05
2023-01-26T10:41:11.164Z,15.68
2023-01-26T10:42:21.951Z,16.02
2023-01-26T10:43:28.567Z,16.08
2023-01-26T10:44:36.539Z,13.55
2023-01-26T10:45:48.380Z,13.73
2023-01-26T10:47:07.921Z,15.18
2023-01-26T10:48:21.290Z,13.68
2023-01-26T10:49:24.450Z,15.77
2023-01-26T10:50:29.465Z,35.25
2023-01-26T10:51:33.482Z,31.08
2023-01-26T10:52:38.533Z,34.10
2023-01-26T10:53:43.143Z,18.17
2023-01-26T10:54:48.323Z,16.33
2023-01-26T10:56:01.364Z,26.45
2023-01-26T10:57:08.501Z,19.52
2023-01-26T10:58:43.259Z,20.48
2023-01-26T10:59:54.594Z,18.60
2023-01-26T11:00:57.111Z,17.05
2023-01-26T11:02:05.015Z,25.50
2023-01-26T11:03:20.425Z,30.10
2023-01-26T11:04:23.460Z,17.13
2023-01-26T11:05:30.168Z,27.27
2023-01-26T11:06:33.039Z,21.48
2023-01-26T11:07:39.744Z,22.45
2023-01-26T11:08:44.765Z,23.08
2023-01-26T11:09:47.720Z,17.88
2023-01-26T11:10:57.452Z,18.95
2023-01-26T11:12:05.906Z,21.95
2023-01-26T11:13:13.979Z,26.63
2023-01-26T11:14:21.170Z,22.33
2023-01-26T11:15:29.386Z,19.88
2023-01-26T11:16:34.848Z,26.10
2023-01-26T11:17:43.562Z,20.05
2023-01-26T11:18:56.674Z,23.08
2023-01-26T11:20:10.825Z,23.13
2023-01-26T11:21:19.374Z,25.65
2023-01-26T11:22:28.891Z,28.67
2023-01-26T11:23:46.163Z,27.35
2023-01-26T11:25:01.100Z,31.08
2023-01-26T11:26:26.994Z,31.48
2023-01-26T11:27:43.248Z,26.67
2023-01-26T11:28:59.232Z,25.85
2023-01-26T11:30:26.534Z,28.33
2023-01-26T11:31:46.046Z,21.67
2023-01-26T11:32:56.871Z,23.95
2023-01-26T11:34:11.179Z,22.90
2023-01-26T11:35:22.867Z,28.25
2023-01-26T11:36:37.840Z,34.33
2023-01-26T11:37:53.882Z,31.75
2023-01-26T11:39:09.398Z,31.20
2023-01-26T11:40:33.121Z,27.05
2023-01-26T11:41:51.711Z,26.40
2023-01-26T11:43:29.438Z,40.78
2023-01-26T11:44:57.519Z,38.15
2023-01-26T11:46:18.655Z,47.15
2023-01-26T11:47:39.069Z,27.23
2023-01-26T11:48:54.565Z,25.52
2023-01-26T11:50:21.937Z,27.15
2023-01-26T11:51:36.860Z,26.70
2023-01-26T11:52:54.275Z,23.17
2023-01-26T11:54:22.403Z,23.65
2023-01-26T11:55:35.175Z,28.92
2023-01-26T11:56:51.841Z,30.17
2023-01-26T11:58:08.237Z,31.27
2023-01-26T11:59:17.631Z,29.70
2023-01-26T12:00:30.607Z,27.73
2023-01-26T12:01:42.130Z,26.25
2023-01-26T12:02:56.672Z,31.30
2023-01-26T12:04:01.409Z,26.98
2023-01-26T12:05:16.848Z,24.30
2023-01-26T12:06:28.819Z,20.10
2023-01-26T12:07:51.634Z,22.63
2023-01-26T12:09:02.813Z,17.85
2023-01-26T12:10:10.355Z,21.42
2023-01-26T12:11:25.647Z,23.77
2023-01-26T12:12:39.842Z,20.15
2023-01-26T12:13:50.130Z,18.02
2023-01-26T12:14:59.951Z,19.92
2023-01-26T12:16:09.183Z,15.10
2023-01-26T12:17:35.092Z,16.67
2023-01-26T12:19:01.839Z,18.98
2023-01-26T12:20:29.180Z,15.93
2023-01-26T12:21:36.099Z,13.95
2023-01-26T12:22:44.197Z,12.63
2023-01-26T12:23:56.461Z,15.05
2023-01-26T12:25:19.414Z,13.98
2023-01-26T12:26:39.935Z,15.07
2023-01-26T12:27:49.471Z,19.38
2023-01-26T12:29:09.282Z,18.15
2023-01-26T12:30:29.235Z,15.20
2023-01-26T12:31:39.859Z,17.40
2023-01-26T12:32:44.714Z,17.63
2023-01-26T12:33:56.606Z,18.25
2023-01-26T12:35:02.256Z,20.63
2023-01-26T12:36:23.512Z,19.63
2023-01-26T12:37:53.936Z,18.45
2023-01-26T12:39:15.646Z,20.70
2023-01-26T12:40:37.524Z,15.95
2023-01-26T12:43:08.909Z,18.73
2023-01-26T12:44:28.773Z,17.50
2023-01-26T12:45:37.435Z,15.20
2023-01-26T12:46:48.022Z,17.42
2023-01-26T12:47:57.747Z,15.35
2023-01-26T12:49:15.478Z,19.02
2023-01-26T12:50:35.621Z,33.55
2023-01-26T12:51:45.115Z,19.23
2023-01-26T12:52:55.422Z,18.83
2023-01-26T12:54:03.866Z,23.70
2023-01-26T12:55:18.308Z,18.58
2023-01-26T12:56:27.272Z,18.58
2023-01-26T12:57:37.119Z,19.08
2023-01-26T12:58:45.459Z,17.85
2023-01-26T12:59:51.516Z,15.07
2023-01-26T13:01:03.287Z,15.43
2023-01-26T13:02:23.121Z,16.52
2023-01-26T13:03:33.645Z,21.20
2023-01-26T13:04:41.479Z,15.40
2023-01-26T13:05:59.247Z,17.00
2023-01-26T13:07:27.567Z,19.50
2023-01-26T13:08:54.653Z,17.95
2023-01-26T13:10:28.103Z,37.55
2023-01-26T13:11:48.658Z,18.27
2023-01-26T13:12:55.356Z,26.10
2023-01-26T13:14:00.521Z,19.83
2023-01-26T13:15:10.230Z,22.35
2023-01-26T13:16:36.778Z,22.42
2023-01-26T13:17:52.717Z,26.02
2023-01-26T13:18:58.899Z,19.75
2023-01-26T13:20:25.051Z,19.35
2023-01-26T13:21:30.689Z,38.05
2023-01-26T13:22:41.499Z,34.88
2023-01-26T13:23:46.895Z,25.30
2023-01-26T13:24:53.502Z,33.42
2023-01-26T13:26:16.436Z,23.00
2023-01-26T13:27:35.834Z,20.27
2023-01-26T13:28:38.166Z,18.17
2023-01-26T13:29:56.503Z,20.20
2023-01-26T13:31:08.782Z,20.83
2023-01-26T13:32:59.727Z,18.08
2023-01-26T13:34:09.750Z,21.33
2023-01-26T13:35:19.857Z,18.17
2023-01-26T13:36:26.918Z,22.27
2023-01-26T13:37:38.834Z,19.45
2023-01-26T13:38:45.913Z,17.92
2023-01-26T13:39:55.347Z,20.42
2023-01-26T13:41:00.621Z,18.88
2023-01-26T13:42:04.319Z,21.70
2023-01-26T13:43:26.176Z,26.25
2023-01-26T13:44:40.010Z,28.60
2023-01-26T13:45:53.771Z,24.88
2023-01-26T13:47:03.404Z,24.90
2023-01-26T13:48:18.183Z,26.45
2023-01-26T13:49:28.300Z,23.60
2023-01-26T13:50:37.791Z,24.92
2023-01-26T13:51:46.532Z,26.30
2023-01-26T13:52:48.633Z,25.60
2023-01-26T13:54:00.842Z,24.90
2023-01-26T13:55:03.194Z,24.27
2023-01-26T13:56:10.109Z,24.70
2023-01-26T13:57:22.838Z,25.55
2023-01-26T13:58:27.917Z,24.92
2023-01-26T13:59:33.236Z,26.23
2023-01-26T14:00:35.846Z,24.20
2023-01-26T14:01:45.479Z,25.35
2023-01-26T14:02:50.641Z,25.67
2023-01-26T14:04:06.736Z,22.58
2023-01-26T14:05:25.180Z,26.05
2023-01-26T14:06:33.336Z,23.27
2023-01-26T14:07:42.932Z,22.83
2023-01-26T14:08:51.089Z,28.05
2023-01-26T14:09:59.114Z,22.02
2023-01-26T14:11:08.687Z,26.23
2023-01-26T14:12:23.991Z,27.55
2023-01-26T14:13:34.527Z,27.63
2023-01-26T14:14:40.906Z,23.58
2023-01-26T14:15:42.929Z,28.23
2023-01-26T14:16:47.754Z,25.83
2023-01-26T14:17:55.522Z,24.65
2023-01-26T14:19:17.246Z,27.75
2023-01-26T14:20:28.428Z,30.15
2023-01-26T14:21:33.759Z,24.50
2023-01-26T14:22:38.789Z,23.90
2023-01-26T14:23:43.487Z,21.60
2023-01-26T14:24:51.519Z,33.65
2023-01-26T14:26:01.625Z,26.67
2023-01-26T14:27:06.563Z,26.95
2023-01-26T14:28:14.965Z,47.85
2023-01-26T14:29:24.547Z,44.53
2023-01-26T14:30:32.085Z,57.65
2023-01-26T14:31:36.919Z,48.55
2023-01-26T14:32:42.906Z,31.60
2023-01-26T14:33:45.201Z,120.20
2023-01-26T14:35:00.883Z,39.30
2023-01-26T14:36:08.233Z,44.13
2023-01-26T14:37:17.864Z,27.73
2023-01-26T14:38:22.928Z,33.60